sensor_id;sensor_type;location;lat;lon;timestamp;temperature;humidity
46754;DHT22;32500;50.620;3.400;2024-02-04T00:01:03;16.40;68.90
46754;DHT22;32500;50.620;3.400;2024-02-04T00:03:28;16.40;68.90
46754;DHT22;32500;50.620;3.400;2024-02-04T00:05:54;16.40;69.00
46754;DHT22;32500;50.620;3.400;2024-02-04T00:08:19;16.40;69.00
46754;DHT22;32500;50.620;3.400;2024-02-04T00:10:45;16.40;68.90
46754;DHT22;32500;50.620;3.400;2024-02-04T00:13:11;16.40;68.90
46754;DHT22;32500;50.620;3.400;2024-02-04T00:15:36;16.40;68.90
46754;DHT22;32500;50.620;3.400;2024-02-04T00:18:02;16.40;68.90
46754;DHT22;32500;50.620;3.400;2024-02-04T00:20:28;16.40;68.90
46754;DHT22;32500;50.620;3.400;2024-02-04T00:22:54;16.40;69.00
46754;DHT22;32500;50.620;3.400;2024-02-04T00:25:20;16.40;68.90
46754;DHT22;32500;50.620;3.400;2024-02-04T00:27:45;16.30;68.90
46754;DHT22;32500;50.620;3.400;2024-02-04T00:30:11;16.40;68.90
46754;DHT22;32500;50.620;3.400;2024-02-04T00:32:37;16.30;68.90
46754;DHT22;32500;50.620;3.400;2024-02-04T00:35:03;16.30;68.90
46754;DHT22;32500;50.620;3.400;2024-02-04T00:37:28;16.30;69.00
46754;DHT22;32500;50.620;3.400;2024-02-04T00:39:54;16.30;68.90
46754;DHT22;32500;50.620;3.400;2024-02-04T00:42:20;16.30;68.90
46754;DHT22;32500;50.620;3.400;2024-02-04T00:44:45;16.30;68.90
46754;DHT22;32500;50.620;3.400;2024-02-04T00:47:11;16.30;68.90
46754;DHT22;32500;50.620;3.400;2024-02-04T00:49:36;16.30;68.90
46754;DHT22;32500;50.620;3.400;2024-02-04T00:52:02;16.30;68.80
46754;DHT22;32500;50.620;3.400;2024-02-04T00:54:28;16.30;68.80
46754;DHT22;32500;50.620;3.400;2024-02-04T00:56:53;16.30;68.90
46754;DHT22;32500;50.620;3.400;2024-02-04T00:59:19;16.30;68.80
46754;DHT22;32500;50.620;3.400;2024-02-04T01:01:45;16.30;68.80
46754;DHT22;32500;50.620;3.400;2024-02-04T01:04:10;16.30;68.80
46754;DHT22;32500;50.620;3.400;2024-02-04T01:06:37;16.30;68.90
46754;DHT22;32500;50.620;3.400;2024-02-04T01:09:02;16.30;68.90
46754;DHT22;32500;50.620;3.400;2024-02-04T01:11:28;16.30;68.80
46754;DHT22;32500;50.620;3.400;2024-02-04T01:13:54;16.30;69.60
46754;DHT22;32500;50.620;3.400;2024-02-04T01:16:20;16.30;68.90
46754;DHT22;32500;50.620;3.400;2024-02-04T01:18:46;16.30;68.80
46754;DHT22;32500;50.620;3.400;2024-02-04T01:21:11;16.30;68.80
46754;DHT22;32500;50.620;3.400;2024-02-04T01:23:37;16.30;68.80
46754;DHT22;32500;50.620;3.400;2024-02-04T01:26:02;16.30;68.80
46754;DHT22;32500;50.620;3.400;2024-02-04T01:28:28;16.20;68.70
46754;DHT22;32500;50.620;3.400;2024-02-04T01:30:54;16.30;68.80
46754;DHT22;32500;50.620;3.400;2024-02-04T01:33:19;16.20;68.80
46754;DHT22;32500;50.620;3.400;2024-02-04T01:35:45;16.20;68.80
46754;DHT22;32500;50.620;3.400;2024-02-04T01:38:11;16.20;68.70
46754;DHT22;32500;50.620;3.400;2024-02-04T01:40:36;16.20;68.80
46754;DHT22;32500;50.620;3.400;2024-02-04T01:43:02;16.20;68.80
46754;DHT22;32500;50.620;3.400;2024-02-04T01:45:28;16.20;68.80
46754;DHT22;32500;50.620;3.400;2024-02-04T01:47:54;16.20;68.80
46754;DHT22;32500;50.620;3.400;2024-02-04T01:50:20;16.20;68.90
46754;DHT22;32500;50.620;3.400;2024-02-04T01:52:46;16.20;68.90
46754;DHT22;32500;50.620;3.400;2024-02-04T01:55:12;16.20;68.80
46754;DHT22;32500;50.620;3.400;2024-02-04T01:57:39;16.20;68.90
46754;DHT22;32500;50.620;3.400;2024-02-04T02:00:05;16.20;68.90
46754;DHT22;32500;50.620;3.400;2024-02-04T02:02:34;16.20;68.90
46754;DHT22;32500;50.620;3.400;2024-02-04T02:05:01;16.10;68.80
46754;DHT22;32500;50.620;3.400;2024-02-04T02:07:26;16.20;68.80
46754;DHT22;32500;50.620;3.400;2024-02-04T02:09:53;16.20;68.80
46754;DHT22;32500;50.620;3.400;2024-02-04T02:12:36;16.20;68.80
46754;DHT22;32500;50.620;3.400;2024-02-04T02:15:14;16.20;68.90
46754;DHT22;32500;50.620;3.400;2024-02-04T02:18:27;16.20;69.60
46754;DHT22;32500;50.620;3.400;2024-02-04T02:23:22;16.10;68.90
46754;DHT22;32500;50.620;3.400;2024-02-04T02:25:49;16.10;68.80
46754;DHT22;32500;50.620;3.400;2024-02-04T02:28:15;16.10;68.80
46754;DHT22;32500;50.620;3.400;2024-02-04T02:30:41;16.10;68.90
46754;DHT22;32500;50.620;3.400;2024-02-04T02:33:06;16.10;68.90
46754;DHT22;32500;50.620;3.400;2024-02-04T02:35:34;16.10;68.90
46754;DHT22;32500;50.620;3.400;2024-02-04T02:41:21;16.10;68.90
46754;DHT22;32500;50.620;3.400;2024-02-04T02:43:48;16.10;68.90
46754;DHT22;32500;50.620;3.400;2024-02-04T02:46:17;16.10;68.90
46754;DHT22;32500;50.620;3.400;2024-02-04T02:48:43;16.10;69.00
46754;DHT22;32500;50.620;3.400;2024-02-04T02:51:09;16.10;68.90
46754;DHT22;32500;50.620;3.400;2024-02-04T02:53:35;16.10;68.90
46754;DHT22;32500;50.620;3.400;2024-02-04T02:56:00;16.10;68.90
46754;DHT22;32500;50.620;3.400;2024-02-04T02:58:26;16.10;68.90
46754;DHT22;32500;50.620;3.400;2024-02-04T03:00:52;16.10;68.90
46754;DHT22;32500;50.620;3.400;2024-02-04T03:03:17;16.10;68.90
46754;DHT22;32500;50.620;3.400;2024-02-04T03:05:43;16.10;68.90
46754;DHT22;32500;50.620;3.400;2024-02-04T03:08:09;16.10;68.90
46754;DHT22;32500;50.620;3.400;2024-02-04T03:10:34;16.00;68.90
46754;DHT22;32500;50.620;3.400;2024-02-04T03:13:00;16.10;68.90
46754;DHT22;32500;50.620;3.400;2024-02-04T03:15:26;16.10;69.60
46754;DHT22;32500;50.620;3.400;2024-02-04T03:17:52;16.10;68.90
46754;DHT22;32500;50.620;3.400;2024-02-04T03:20:18;16.00;68.70
46754;DHT22;32500;50.620;3.400;2024-02-04T03:22:43;16.10;68.90
46754;DHT22;32500;50.620;3.400;2024-02-04T03:25:11;16.10;68.80
46754;DHT22;32500;50.620;3.400;2024-02-04T03:27:37;16.00;68.80
46754;DHT22;32500;50.620;3.400;2024-02-04T03:30:05;16.00;68.80
46754;DHT22;32500;50.620;3.400;2024-02-04T03:32:31;16.10;68.90
46754;DHT22;32500;50.620;3.400;2024-02-04T03:35:00;16.00;68.80
46754;DHT22;32500;50.620;3.400;2024-02-04T03:37:26;16.10;68.90
46754;DHT22;32500;50.620;3.400;2024-02-04T03:39:51;16.00;68.80
46754;DHT22;32500;50.620;3.400;2024-02-04T03:42:17;16.10;68.80
46754;DHT22;32500;50.620;3.400;2024-02-04T03:44:45;16.10;68.90
46754;DHT22;32500;50.620;3.400;2024-02-04T03:47:10;16.00;68.90
46754;DHT22;32500;50.620;3.400;2024-02-04T03:49:36;16.00;68.80
46754;DHT22;32500;50.620;3.400;2024-02-04T03:52:02;16.00;68.90
46754;DHT22;32500;50.620;3.400;2024-02-04T03:54:27;16.00;68.80
46754;DHT22;32500;50.620;3.400;2024-02-04T03:56:53;16.00;68.80
46754;DHT22;32500;50.620;3.400;2024-02-04T03:59:19;16.00;68.80
46754;DHT22;32500;50.620;3.400;2024-02-04T04:01:51;16.00;68.70
46754;DHT22;32500;50.620;3.400;2024-02-04T04:04:19;16.00;68.70
46754;DHT22;32500;50.620;3.400;2024-02-04T04:06:45;16.00;68.80
46754;DHT22;32500;50.620;3.400;2024-02-04T04:09:11;16.00;68.70
46754;DHT22;32500;50.620;3.400;2024-02-04T04:11:37;16.00;68.80
46754;DHT22;32500;50.620;3.400;2024-02-04T04:14:03;16.00;68.90
46754;DHT22;32500;50.620;3.400;2024-02-04T04:16:28;16.00;68.70
46754;DHT22;32500;50.620;3.400;2024-02-04T04:18:54;16.00;68.80
46754;DHT22;32500;50.620;3.400;2024-02-04T04:21:20;16.00;68.80
46754;DHT22;32500;50.620;3.400;2024-02-04T04:23:46;16.00;68.90
46754;DHT22;32500;50.620;3.400;2024-02-04T04:26:11;16.00;68.90
46754;DHT22;32500;50.620;3.400;2024-02-04T04:28:37;16.00;68.90
46754;DHT22;32500;50.620;3.400;2024-02-04T04:31:03;16.00;68.80
46754;DHT22;32500;50.620;3.400;2024-02-04T04:33:29;16.00;68.90
46754;DHT22;32500;50.620;3.400;2024-02-04T04:35:55;16.00;68.80
46754;DHT22;32500;50.620;3.400;2024-02-04T04:38:21;16.00;68.80
46754;DHT22;32500;50.620;3.400;2024-02-04T04:40:47;16.00;68.80
46754;DHT22;32500;50.620;3.400;2024-02-04T04:43:13;15.90;68.70
46754;DHT22;32500;50.620;3.400;2024-02-04T04:45:39;16.00;68.80
46754;DHT22;32500;50.620;3.400;2024-02-04T04:48:05;15.90;68.80
46754;DHT22;32500;50.620;3.400;2024-02-04T04:50:33;16.00;68.90
46754;DHT22;32500;50.620;3.400;2024-02-04T04:52:58;15.90;68.80
46754;DHT22;32500;50.620;3.400;2024-02-04T04:55:24;16.00;68.80
46754;DHT22;32500;50.620;3.400;2024-02-04T04:57:50;15.90;68.80
46754;DHT22;32500;50.620;3.400;2024-02-04T05:00:17;15.90;68.90
46754;DHT22;32500;50.620;3.400;2024-02-04T05:02:43;15.90;68.80
46754;DHT22;32500;50.620;3.400;2024-02-04T05:05:12;15.90;68.80
46754;DHT22;32500;50.620;3.400;2024-02-04T05:07:38;15.90;68.70
46754;DHT22;32500;50.620;3.400;2024-02-04T05:10:04;15.90;68.80
46754;DHT22;32500;50.620;3.400;2024-02-04T05:12:30;15.90;68.80
46754;DHT22;32500;50.620;3.400;2024-02-04T05:14:56;15.90;68.80
46754;DHT22;32500;50.620;3.400;2024-02-04T05:17:22;15.90;68.80
46754;DHT22;32500;50.620;3.400;2024-02-04T05:19:48;15.90;68.80
46754;DHT22;32500;50.620;3.400;2024-02-04T05:22:13;15.90;68.80
46754;DHT22;32500;50.620;3.400;2024-02-04T05:24:39;15.90;68.80
46754;DHT22;32500;50.620;3.400;2024-02-04T05:27:06;15.90;68.80
46754;DHT22;32500;50.620;3.400;2024-02-04T05:29:32;15.90;68.70
46754;DHT22;32500;50.620;3.400;2024-02-04T05:31:58;15.90;68.90
46754;DHT22;32500;50.620;3.400;2024-02-04T05:34:23;15.90;68.80
46754;DHT22;32500;50.620;3.400;2024-02-04T05:36:49;15.90;68.80
46754;DHT22;32500;50.620;3.400;2024-02-04T05:39:15;15.90;68.80
46754;DHT22;32500;50.620;3.400;2024-02-04T05:41:42;15.90;68.90
46754;DHT22;32500;50.620;3.400;2024-02-04T05:44:08;15.90;68.80
46754;DHT22;32500;50.620;3.400;2024-02-04T05:46:37;15.90;68.80
46754;DHT22;32500;50.620;3.400;2024-02-04T05:49:04;15.90;68.80
46754;DHT22;32500;50.620;3.400;2024-02-04T05:51:31;15.90;68.80
46754;DHT22;32500;50.620;3.400;2024-02-04T05:53:57;15.90;68.70
46754;DHT22;32500;50.620;3.400;2024-02-04T05:56:23;15.90;69.50
46754;DHT22;32500;50.620;3.400;2024-02-04T05:58:49;15.90;68.80
46754;DHT22;32500;50.620;3.400;2024-02-04T06:01:15;15.90;68.80
46754;DHT22;32500;50.620;3.400;2024-02-04T06:03:42;15.90;68.70
46754;DHT22;32500;50.620;3.400;2024-02-04T06:06:13;15.90;68.80
46754;DHT22;32500;50.620;3.400;2024-02-04T06:08:39;15.90;68.80
46754;DHT22;32500;50.620;3.400;2024-02-04T06:11:05;15.90;68.80
46754;DHT22;32500;50.620;3.400;2024-02-04T06:13:31;15.80;68.80
46754;DHT22;32500;50.620;3.400;2024-02-04T06:15:56;15.90;68.90
46754;DHT22;32500;50.620;3.400;2024-02-04T06:18:22;15.80;68.80
46754;DHT22;32500;50.620;3.400;2024-02-04T06:20:47;15.90;68.80
46754;DHT22;32500;50.620;3.400;2024-02-04T06:23:13;15.80;68.80
46754;DHT22;32500;50.620;3.400;2024-02-04T06:25:39;15.80;68.80
46754;DHT22;32500;50.620;3.400;2024-02-04T06:28:04;15.80;68.80
46754;DHT22;32500;50.620;3.400;2024-02-04T06:30:31;15.80;68.80
46754;DHT22;32500;50.620;3.400;2024-02-04T06:32:56;15.80;68.90
46754;DHT22;32500;50.620;3.400;2024-02-04T06:35:22;15.80;68.80
46754;DHT22;32500;50.620;3.400;2024-02-04T06:37:48;15.80;68.80
46754;DHT22;32500;50.620;3.400;2024-02-04T06:40:13;15.80;68.80
46754;DHT22;32500;50.620;3.400;2024-02-04T06:42:39;15.80;68.80
46754;DHT22;32500;50.620;3.400;2024-02-04T06:45:05;15.80;68.80
46754;DHT22;32500;50.620;3.400;2024-02-04T06:47:31;15.80;68.90
46754;DHT22;32500;50.620;3.400;2024-02-04T06:49:57;15.80;68.80
46754;DHT22;32500;50.620;3.400;2024-02-04T06:52:22;15.80;68.80
46754;DHT22;32500;50.620;3.400;2024-02-04T06:54:48;15.80;68.80
46754;DHT22;32500;50.620;3.400;2024-02-04T06:57:13;15.80;68.80
46754;DHT22;32500;50.620;3.400;2024-02-04T06:59:39;15.80;68.90
46754;DHT22;32500;50.620;3.400;2024-02-04T07:02:05;15.80;68.80
46754;DHT22;32500;50.620;3.400;2024-02-04T07:04:31;15.80;68.80
46754;DHT22;32500;50.620;3.400;2024-02-04T07:06:57;15.80;68.80
46754;DHT22;32500;50.620;3.400;2024-02-04T07:09:22;15.80;69.00
46754;DHT22;32500;50.620;3.400;2024-02-04T07:11:48;15.80;68.80
46754;DHT22;32500;50.620;3.400;2024-02-04T07:14:14;15.80;68.80
46754;DHT22;32500;50.620;3.400;2024-02-04T07:16:39;15.80;68.80
46754;DHT22;32500;50.620;3.400;2024-02-04T07:19:05;15.80;68.80
46754;DHT22;32500;50.620;3.400;2024-02-04T07:21:31;15.80;68.90
46754;DHT22;32500;50.620;3.400;2024-02-04T07:23:56;15.80;68.80
46754;DHT22;32500;50.620;3.400;2024-02-04T07:26:22;15.80;69.00
46754;DHT22;32500;50.620;3.400;2024-02-04T07:28:48;15.80;69.50
46754;DHT22;32500;50.620;3.400;2024-02-04T07:31:13;15.80;69.70
46754;DHT22;32500;50.620;3.400;2024-02-04T07:33:39;15.80;69.90
46754;DHT22;32500;50.620;3.400;2024-02-04T07:36:05;15.80;70.00
46754;DHT22;32500;50.620;3.400;2024-02-04T07:38:31;15.80;70.10
46754;DHT22;32500;50.620;3.400;2024-02-04T07:40:56;15.80;70.30
46754;DHT22;32500;50.620;3.400;2024-02-04T07:43:25;15.80;70.40
46754;DHT22;32500;50.620;3.400;2024-02-04T07:45:50;15.80;70.40
46754;DHT22;32500;50.620;3.400;2024-02-04T07:48:16;15.80;70.50
46754;DHT22;32500;50.620;3.400;2024-02-04T07:50:42;15.80;70.60
46754;DHT22;32500;50.620;3.400;2024-02-04T07:53:08;15.80;70.60
46754;DHT22;32500;50.620;3.400;2024-02-04T07:55:34;15.80;70.80
46754;DHT22;32500;50.620;3.400;2024-02-04T07:57:59;15.80;70.90
46754;DHT22;32500;50.620;3.400;2024-02-04T08:00:25;15.80;70.90
46754;DHT22;32500;50.620;3.400;2024-02-04T08:02:51;15.80;70.90
46754;DHT22;32500;50.620;3.400;2024-02-04T08:05:16;15.80;70.90
46754;DHT22;32500;50.620;3.400;2024-02-04T08:07:42;15.80;70.90
46754;DHT22;32500;50.620;3.400;2024-02-04T08:10:08;15.80;71.00
46754;DHT22;32500;50.620;3.400;2024-02-04T08:12:34;15.80;71.00
46754;DHT22;32500;50.620;3.400;2024-02-04T08:15:00;15.80;70.90
46754;DHT22;32500;50.620;3.400;2024-02-04T08:17:26;15.80;70.90
46754;DHT22;32500;50.620;3.400;2024-02-04T08:19:54;15.80;71.00
46754;DHT22;32500;50.620;3.400;2024-02-04T08:22:19;15.80;71.00
46754;DHT22;32500;50.620;3.400;2024-02-04T08:24:45;15.80;71.00
46754;DHT22;32500;50.620;3.400;2024-02-04T08:27:10;15.80;71.00
46754;DHT22;32500;50.620;3.400;2024-02-04T08:29:36;15.80;71.00
46754;DHT22;32500;50.620;3.400;2024-02-04T08:32:02;15.80;71.00
46754;DHT22;32500;50.620;3.400;2024-02-04T08:34:28;15.80;71.00
46754;DHT22;32500;50.620;3.400;2024-02-04T08:36:53;15.90;71.10
46754;DHT22;32500;50.620;3.400;2024-02-04T08:39:19;15.80;71.00
46754;DHT22;32500;50.620;3.400;2024-02-04T08:41:45;15.90;71.10
46754;DHT22;32500;50.620;3.400;2024-02-04T08:44:10;15.80;71.20
46754;DHT22;32500;50.620;3.400;2024-02-04T08:46:36;15.80;71.20
46754;DHT22;32500;50.620;3.400;2024-02-04T08:49:02;15.90;71.30
46754;DHT22;32500;50.620;3.400;2024-02-04T08:51:27;15.80;71.20
46754;DHT22;32500;50.620;3.400;2024-02-04T08:53:53;15.90;71.40
46754;DHT22;32500;50.620;3.400;2024-02-04T08:56:18;15.80;71.30
46754;DHT22;32500;50.620;3.400;2024-02-04T08:58:45;15.90;71.20
46754;DHT22;32500;50.620;3.400;2024-02-04T09:01:11;15.90;71.20
46754;DHT22;32500;50.620;3.400;2024-02-04T09:03:37;15.90;71.30
46754;DHT22;32500;50.620;3.400;2024-02-04T09:06:03;15.80;71.20
46754;DHT22;32500;50.620;3.400;2024-02-04T09:08:28;15.80;71.20
46754;DHT22;32500;50.620;3.400;2024-02-04T09:10:54;15.80;71.10
46754;DHT22;32500;50.620;3.400;2024-02-04T09:13:20;15.80;71.00
46754;DHT22;32500;50.620;3.400;2024-02-04T09:15:45;15.80;70.80
46754;DHT22;32500;50.620;3.400;2024-02-04T09:18:11;15.80;70.70
46754;DHT22;32500;50.620;3.400;2024-02-04T09:20:37;15.80;70.60
46754;DHT22;32500;50.620;3.400;2024-02-04T09:23:02;15.80;70.50
46754;DHT22;32500;50.620;3.400;2024-02-04T09:25:30;15.90;70.40
46754;DHT22;32500;50.620;3.400;2024-02-04T09:27:56;16.20;71.20
46754;DHT22;32500;50.620;3.400;2024-02-04T09:30:22;17.80;64.80
46754;DHT22;32500;50.620;3.400;2024-02-04T09:32:48;20.20;57.20
46754;DHT22;32500;50.620;3.400;2024-02-04T09:35:14;23.10;49.80
46754;DHT22;32500;50.620;3.400;2024-02-04T09:37:39;25.10;44.40
46754;DHT22;32500;50.620;3.400;2024-02-04T09:40:05;26.40;41.10
46754;DHT22;32500;50.620;3.400;2024-02-04T09:42:31;27.10;39.30
46754;DHT22;32500;50.620;3.400;2024-02-04T09:44:57;27.70;38.10
46754;DHT22;32500;50.620;3.400;2024-02-04T09:47:23;28.10;38.00
46754;DHT22;32500;50.620;3.400;2024-02-04T09:49:49;28.30;38.00
46754;DHT22;32500;50.620;3.400;2024-02-04T09:52:19;28.40;38.10
46754;DHT22;32500;50.620;3.400;2024-02-04T09:54:50;28.30;38.00
46754;DHT22;32500;50.620;3.400;2024-02-04T09:57:21;28.20;38.20
46754;DHT22;32500;50.620;3.400;2024-02-04T09:59:47;27.90;38.70
46754;DHT22;32500;50.620;3.400;2024-02-04T10:02:13;28.00;38.40
46754;DHT22;32500;50.620;3.400;2024-02-04T10:04:38;27.80;38.70
46754;DHT22;32500;50.620;3.400;2024-02-04T10:07:04;27.80;38.80
46754;DHT22;32500;50.620;3.400;2024-02-04T10:09:30;27.60;39.20
46754;DHT22;32500;50.620;3.400;2024-02-04T10:11:57;27.20;39.70
46754;DHT22;32500;50.620;3.400;2024-02-04T10:14:22;27.00;40.10
46754;DHT22;32500;50.620;3.400;2024-02-04T10:16:49;26.90;40.60
46754;DHT22;32500;50.620;3.400;2024-02-04T10:19:15;26.80;40.90
46754;DHT22;32500;50.620;3.400;2024-02-04T10:21:40;26.50;41.30
46754;DHT22;32500;50.620;3.400;2024-02-04T10:24:06;26.50;41.90
46754;DHT22;32500;50.620;3.400;2024-02-04T10:26:33;26.80;41.40
46754;DHT22;32500;50.620;3.400;2024-02-04T10:29:03;27.40;40.30
46754;DHT22;32500;50.620;3.400;2024-02-04T10:31:29;28.10;39.80
46754;DHT22;32500;50.620;3.400;2024-02-04T10:33:55;28.00;39.50
46754;DHT22;32500;50.620;3.400;2024-02-04T10:36:21;27.80;40.00
46754;DHT22;32500;50.620;3.400;2024-02-04T10:38:47;27.60;40.20
46754;DHT22;32500;50.620;3.400;2024-02-04T10:41:15;27.50;40.60
46754;DHT22;32500;50.620;3.400;2024-02-04T10:43:43;27.50;40.20
46754;DHT22;32500;50.620;3.400;2024-02-04T10:46:13;27.60;40.30
46754;DHT22;32500;50.620;3.400;2024-02-04T10:48:42;27.70;40.20
46754;DHT22;32500;50.620;3.400;2024-02-04T10:51:14;27.70;40.00
46754;DHT22;32500;50.620;3.400;2024-02-04T10:53:41;27.50;40.40
46754;DHT22;32500;50.620;3.400;2024-02-04T10:56:07;27.40;40.50
46754;DHT22;32500;50.620;3.400;2024-02-04T10:58:36;27.10;41.00
46754;DHT22;32500;50.620;3.400;2024-02-04T11:01:02;26.80;41.50
46754;DHT22;32500;50.620;3.400;2024-02-04T11:03:28;26.60;41.80
46754;DHT22;32500;50.620;3.400;2024-02-04T11:05:55;26.40;42.20
46754;DHT22;32500;50.620;3.400;2024-02-04T11:08:21;26.10;42.60
46754;DHT22;32500;50.620;3.400;2024-02-04T11:10:47;25.80;43.20
46754;DHT22;32500;50.620;3.400;2024-02-04T11:13:13;25.60;43.60
46754;DHT22;32500;50.620;3.400;2024-02-04T11:15:41;25.40;44.10
46754;DHT22;32500;50.620;3.400;2024-02-04T11:20:49;25.00;44.80
46754;DHT22;32500;50.620;3.400;2024-02-04T11:23:41;24.80;45.40
46754;DHT22;32500;50.620;3.400;2024-02-04T11:26:10;24.70;46.00
46754;DHT22;32500;50.620;3.400;2024-02-04T11:28:36;24.50;46.20
46754;DHT22;32500;50.620;3.400;2024-02-04T11:31:02;24.20;47.10
46754;DHT22;32500;50.620;3.400;2024-02-04T11:33:31;24.10;47.00
46754;DHT22;32500;50.620;3.400;2024-02-04T11:36:07;23.90;47.50
46754;DHT22;32500;50.620;3.400;2024-02-04T11:38:36;23.70;48.00
46754;DHT22;32500;50.620;3.400;2024-02-04T11:41:03;23.60;48.40
46754;DHT22;32500;50.620;3.400;2024-02-04T11:43:31;23.40;48.80
46754;DHT22;32500;50.620;3.400;2024-02-04T11:45:57;23.30;49.10
46754;DHT22;32500;50.620;3.400;2024-02-04T11:48:33;23.20;49.30
46754;DHT22;32500;50.620;3.400;2024-02-04T11:50:59;23.00;49.70
46754;DHT22;32500;50.620;3.400;2024-02-04T11:53:29;22.90;50.10
46754;DHT22;32500;50.620;3.400;2024-02-04T11:55:58;22.80;50.40
46754;DHT22;32500;50.620;3.400;2024-02-04T11:58:25;22.60;50.70
46754;DHT22;32500;50.620;3.400;2024-02-04T12:00:52;22.50;51.20
46754;DHT22;32500;50.620;3.400;2024-02-04T12:03:31;22.40;51.40
46754;DHT22;32500;50.620;3.400;2024-02-04T12:05:58;22.20;51.80
46754;DHT22;32500;50.620;3.400;2024-02-04T12:08:25;22.10;52.00
46754;DHT22;32500;50.620;3.400;2024-02-04T12:10:52;22.00;52.40
46754;DHT22;32500;50.620;3.400;2024-02-04T12:13:19;22.00;52.60
46754;DHT22;32500;50.620;3.400;2024-02-04T12:15:46;21.80;52.90
46754;DHT22;32500;50.620;3.400;2024-02-04T12:18:12;21.70;53.20
46754;DHT22;32500;50.620;3.400;2024-02-04T12:20:39;21.60;53.50
46754;DHT22;32500;50.620;3.400;2024-02-04T12:23:06;21.50;53.60
46754;DHT22;32500;50.620;3.400;2024-02-04T12:25:33;21.40;53.90
46754;DHT22;32500;50.620;3.400;2024-02-04T12:27:59;21.30;54.20
46754;DHT22;32500;50.620;3.400;2024-02-04T12:30:28;21.20;54.30
46754;DHT22;32500;50.620;3.400;2024-02-04T12:32:58;21.10;54.60
46754;DHT22;32500;50.620;3.400;2024-02-04T12:35:25;21.10;54.90
46754;DHT22;32500;50.620;3.400;2024-02-04T12:37:55;21.00;55.10
46754;DHT22;32500;50.620;3.400;2024-02-04T12:43:01;20.80;55.50
46754;DHT22;32500;50.620;3.400;2024-02-04T12:45:27;20.70;55.80
46754;DHT22;32500;50.620;3.400;2024-02-04T12:47:55;20.70;56.00
46754;DHT22;32500;50.620;3.400;2024-02-04T12:50:21;20.60;56.20
46754;DHT22;32500;50.620;3.400;2024-02-04T12:52:49;20.50;56.30
46754;DHT22;32500;50.620;3.400;2024-02-04T12:55:26;20.40;56.50
46754;DHT22;32500;50.620;3.400;2024-02-04T12:58:06;20.40;56.70
46754;DHT22;32500;50.620;3.400;2024-02-04T13:00:34;20.30;57.00
46754;DHT22;32500;50.620;3.400;2024-02-04T13:03:01;20.20;57.10
46754;DHT22;32500;50.620;3.400;2024-02-04T13:05:27;20.20;57.30
46754;DHT22;32500;50.620;3.400;2024-02-04T13:07:57;20.10;57.40
46754;DHT22;32500;50.620;3.400;2024-02-04T13:10:26;20.10;57.60
46754;DHT22;32500;50.620;3.400;2024-02-04T13:15:29;20.00;57.90
46754;DHT22;32500;50.620;3.400;2024-02-04T13:17:55;19.90;58.10
46754;DHT22;32500;50.620;3.400;2024-02-04T13:20:22;19.90;58.20
46754;DHT22;32500;50.620;3.400;2024-02-04T13:22:47;19.80;58.20
46754;DHT22;32500;50.620;3.400;2024-02-04T13:25:13;19.80;58.40
46754;DHT22;32500;50.620;3.400;2024-02-04T13:27:40;19.70;58.60
46754;DHT22;32500;50.620;3.400;2024-02-04T13:30:07;19.70;58.70
46754;DHT22;32500;50.620;3.400;2024-02-04T13:32:38;19.60;58.80
46754;DHT22;32500;50.620;3.400;2024-02-04T13:35:04;19.60;58.90
46754;DHT22;32500;50.620;3.400;2024-02-04T13:37:31;19.60;59.20
46754;DHT22;32500;50.620;3.400;2024-02-04T13:39:57;19.50;59.20
46754;DHT22;32500;50.620;3.400;2024-02-04T13:42:23;19.50;59.30
46754;DHT22;32500;50.620;3.400;2024-02-04T13:44:49;19.50;59.50
46754;DHT22;32500;50.620;3.400;2024-02-04T13:47:14;19.40;59.60
46754;DHT22;32500;50.620;3.400;2024-02-04T13:49:40;19.40;59.60
46754;DHT22;32500;50.620;3.400;2024-02-04T13:52:06;19.30;60.20
46754;DHT22;32500;50.620;3.400;2024-02-04T13:54:31;19.30;59.80
46754;DHT22;32500;50.620;3.400;2024-02-04T13:56:57;19.20;59.90
46754;DHT22;32500;50.620;3.400;2024-02-04T13:59:22;19.20;60.10
46754;DHT22;32500;50.620;3.400;2024-02-04T14:01:48;19.20;60.20
46754;DHT22;32500;50.620;3.400;2024-02-04T14:04:15;19.10;60.20
46754;DHT22;32500;50.620;3.400;2024-02-04T14:06:41;19.10;60.40
46754;DHT22;32500;50.620;3.400;2024-02-04T14:09:06;19.10;61.30
46754;DHT22;32500;50.620;3.400;2024-02-04T14:11:32;19.00;60.60
46754;DHT22;32500;50.620;3.400;2024-02-04T14:13:58;19.00;60.70
46754;DHT22;32500;50.620;3.400;2024-02-04T14:16:24;19.00;60.90
46754;DHT22;32500;50.620;3.400;2024-02-04T14:18:50;19.00;61.00
46754;DHT22;32500;50.620;3.400;2024-02-04T14:21:16;18.90;61.20
46754;DHT22;32500;50.620;3.400;2024-02-04T14:23:41;18.90;61.30
46754;DHT22;32500;50.620;3.400;2024-02-04T14:26:18;18.90;61.40
46754;DHT22;32500;50.620;3.400;2024-02-04T14:28:44;18.80;61.50
46754;DHT22;32500;50.620;3.400;2024-02-04T14:31:10;18.80;61.50
46754;DHT22;32500;50.620;3.400;2024-02-04T14:33:36;18.80;61.60
46754;DHT22;32500;50.620;3.400;2024-02-04T14:36:01;18.80;61.80
46754;DHT22;32500;50.620;3.400;2024-02-04T14:38:27;18.70;61.80
46754;DHT22;32500;50.620;3.400;2024-02-04T14:40:53;18.70;62.70
46754;DHT22;32500;50.620;3.400;2024-02-04T14:43:18;18.70;62.80
46754;DHT22;32500;50.620;3.400;2024-02-04T14:45:47;18.60;62.30
46754;DHT22;32500;50.620;3.400;2024-02-04T14:48:12;18.60;62.20
46754;DHT22;32500;50.620;3.400;2024-02-04T14:50:38;18.60;62.40
46754;DHT22;32500;50.620;3.400;2024-02-04T14:53:04;18.50;62.40
46754;DHT22;32500;50.620;3.400;2024-02-04T14:55:29;18.60;62.60
46754;DHT22;32500;50.620;3.400;2024-02-04T14:57:55;18.50;62.60
46754;DHT22;32500;50.620;3.400;2024-02-04T15:00:21;18.50;62.50
46754;DHT22;32500;50.620;3.400;2024-02-04T15:02:50;18.50;63.00
46754;DHT22;32500;50.620;3.400;2024-02-04T15:05:16;18.40;62.90
46754;DHT22;32500;50.620;3.400;2024-02-04T15:07:42;18.40;62.90
46754;DHT22;32500;50.620;3.400;2024-02-04T15:10:08;18.40;63.10
46754;DHT22;32500;50.620;3.400;2024-02-04T15:12:36;18.40;63.10
46754;DHT22;32500;50.620;3.400;2024-02-04T15:17:30;18.40;63.30
46754;DHT22;32500;50.620;3.400;2024-02-04T15:19:56;18.30;63.30
46754;DHT22;32500;50.620;3.400;2024-02-04T15:22:21;18.30;63.40
46754;DHT22;32500;50.620;3.400;2024-02-04T15:24:47;18.30;63.40
46754;DHT22;32500;50.620;3.400;2024-02-04T15:27:13;18.30;63.20
46754;DHT22;32500;50.620;3.400;2024-02-04T15:29:41;18.30;63.60
46754;DHT22;32500;50.620;3.400;2024-02-04T15:32:08;18.30;63.70
46754;DHT22;32500;50.620;3.400;2024-02-04T15:34:34;18.20;63.80
46754;DHT22;32500;50.620;3.400;2024-02-04T15:37:03;18.30;64.20
46754;DHT22;32500;50.620;3.400;2024-02-04T15:39:29;18.30;64.30
46754;DHT22;32500;50.620;3.400;2024-02-04T15:41:54;18.30;64.30